Cebollita Spring, Valles Caldera, New Mexico Weather observations

Data are for 10 minute period ending at time listed.
 Day   Time   Solar   Ave.   Ave.  Ave.  Vector  Max.   Baro.   Total    
  of    of     Rad.   Air    Rel.  Wind   Wind   Wind  Press.  Precip.   
Year   Day            Temp.  Hum.  Speed  Dir.   Gust                    
2017   (MST)  Kw/m2    F      %     mph   deg.    mph    mb.     in.     
-------------------------------------------------------------------------
 291    0:00   0.00   31.5    44    2.5    21     6.0   99999.0    0.00 
 291    0:10   0.00   32.3    40    2.4    11     4.8   99999.0    0.00 
 291    0:20   0.00   32.6    40    1.4    26     3.6   99999.0    0.00 
 291    0:30   0.00   31.9    43    1.0    42     1.8   99999.0    0.00 
 291    0:40   0.00   31.3    43    1.2    46     2.4   99999.0    0.00 
 291    0:50   0.00   30.9    45    1.1    49     3.0   99999.0    0.00 
 291    1:00   0.00   30.5    46    1.3    54     2.4   99999.0    0.00 
 291    1:10   0.00   30.1    47    1.0    56     1.8   99999.0    0.00 
 291    1:20   0.00   29.7    47    0.4    76     1.8   99999.0    0.00 
 291    1:30   0.00   29.5    43    0.2    76     2.4   99999.0    0.00 
 291    1:40   0.00   29.4    45    1.2    60     3.0   99999.0    0.00 
 291    1:50   0.00   29.1    48    1.0     6     3.6   99999.0    0.00 
 291    2:00   0.00   29.4    47    0.7   348     3.6   99999.0    0.00 
 291    2:10   0.00   30.1    46    1.9   355     4.2   99999.0    0.00 
 291    2:20   0.00   30.8    48    1.8   357     4.2   99999.0    0.00 
 291    2:30   0.00   31.3    46    0.8    11     3.0   99999.0    0.00 
 291    2:40   0.00   31.1    46    1.0    17     2.4   99999.0    0.00 
 291    2:50   0.00   30.7    48    0.9    30     3.0   99999.0    0.00 
 291    3:00   0.00   30.2    48    0.4    20     2.4   99999.0    0.00 
 291    3:10   0.00   29.9    50    0.4    34     1.8   99999.0    0.00 
 291    3:20   0.00   29.6    52    0.6    36     2.4   99999.0    0.00 
 291    3:30   0.00   29.3    53    0.7    21     2.4   99999.0    0.00 
 291    3:40   0.00   29.4    54    1.6    11     3.6   99999.0    0.00 
 291    3:50   0.00   29.9    52    2.1    18     4.2   99999.0    0.00 
 291    4:00   0.00   30.7    51    2.1    11     3.6   99999.0    0.00 
 291    4:10   0.00   30.5    57    2.3   357     4.8   99999.0    0.00 
 291    4:20   0.00   30.2    56    2.9   352     5.4   99999.0    0.00 
 291    4:30   0.00   30.9    52    3.1   352     6.0   99999.0    0.00 
 291    4:40   0.00   31.5    52    2.2   343     4.8   99999.0    0.00 
 291    4:50   0.00   31.2    51    2.2   344     4.2   99999.0    0.00 
 291    5:00   0.00   30.6    53    2.3   351     3.6   99999.0    0.00 
 291    5:10   0.00   30.1    55    2.0     3     4.2   99999.0    0.00 
 291    5:20   0.00   29.9    55    2.4   350     4.2   99999.0    0.00 
 291    5:30   0.00   29.7    56    2.2   356     3.6   99999.0    0.00 
 291    5:40   0.00   29.3    57    1.8    14     3.6   99999.0    0.00 
 291    5:50   0.00   28.8    59    1.3    26     3.0   99999.0    0.00 
 291    6:00   0.00   28.6    60    1.4    14     3.6   99999.0    0.00 
 291    6:10   0.00   28.5    61    0.9    35     2.4   99999.0    0.00 
 291    6:20   0.00   28.5    61    1.6    30     3.0   99999.0    0.00 
 291    6:30   0.01   28.6    62    0.2    26     1.2   99999.0    0.00 
 291    6:40   0.02   28.7    62    0.1    46     1.2   99999.0    0.00 
 291    6:50   0.03   29.2    62    1.3    44     3.0   99999.0    0.00 
 291    7:00   0.04   30.3    60    0.8    36     2.4   99999.0    0.00 
 291    7:10   0.06   31.4    60    0.2    41     1.2   99999.0    0.00 
 291    7:20   0.07   32.7    59    0.1    39     1.2   99999.0    0.00 
 291    7:30   0.10   34.2    59    0.1    14     1.2   99999.0    0.00 
 291    7:40   0.12   36.0    58    1.5   359     3.0   99999.0    0.00 
 291    7:50   0.15   38.3    57    1.5   352     3.0   99999.0    0.00 
 291    8:00   0.21   40.8    57    2.7   344     4.2   99999.0    0.00 
 291    8:10   0.21   44.1    51    3.1   341     5.4   99999.0    0.00 
 291    8:20   0.24   47.7    37    2.9   340     4.8   99999.0    0.00 
 291    8:30   0.28   50.8    30    2.3   344     4.8   99999.0    0.00 
 291    8:40   0.25   53.1    27    2.1   356    14.3   99999.0    0.00 
 291    8:50   0.17   55.0    25    2.6   339     6.0   99999.0    0.00 
 291    9:00   -8190.00   56.9    23    3.4   333     7.2   99999.0    0.00 
 291    9:10   0.54   58.5    21    3.9   305     9.0   99999.0    0.00 
 291    9:20   0.54   59.1    19    6.4   307    10.8   99999.0    0.00 
 291    9:30   0.53   59.0    18    5.3   313     9.6   99999.0    0.00 
 291    9:40   0.54   60.3    17    4.8   290    10.2   99999.0    0.00 
 291    9:50   0.57   64.1    19    4.8   285     9.6   99999.0    0.00 
 291   10:00   0.61   61.7    17    4.5   291     9.0   99999.0    0.00 
 291   10:10   0.62   61.8    17    5.8   290    13.1   99999.0    0.00 
 291   10:20   0.67   62.1    17    6.0   273    11.3   99999.0    0.00 
 291   10:30   0.61   62.4    16    5.7   265    12.5   99999.0    0.00 
 291   10:40   0.65   62.6    16    5.1   287     9.6   99999.0    0.00 
 291   10:50   0.62   62.5    16    5.5   265    11.3   99999.0    0.00 
 291   11:00   0.69   63.3    16    5.9   274    12.5   99999.0    0.00 
 291   11:10   0.75   63.8    15    5.2   257    11.9   99999.0    0.00 
 291   11:20   0.76   64.4    14    3.4   246     8.4   99999.0    0.00 
 291   11:30   0.70   64.2    15    6.1   273    10.8   99999.0    0.00 
 291   11:40   0.69   64.5    15    6.4   284    11.3   99999.0    0.00 
 291   11:50   0.71   65.1    15    4.5   264     9.6   99999.0    0.00 
 291   12:00   0.79   65.5    14    5.6   254    12.5   99999.0    0.00 
 291   12:10   0.72   65.8    14    6.3   288    10.2   99999.0    0.00 
 291   12:20   0.72   66.2    14    5.5   284    10.2   99999.0    0.00 
 291   12:30   0.59   65.7    14    6.7   295    10.8   99999.0    0.00 
 291   12:40   0.60   64.8    14    6.7   270    11.3   99999.0    0.00 
 291   12:50   0.63   64.7    14    6.6   263    10.2   99999.0    0.00 
 291   13:00   0.62   65.2    14    4.8   275     9.6   99999.0    0.00 
 291   13:10   0.55   65.8    14    4.9   287     9.0   99999.0    0.00 
 291   13:20   0.54   65.4    14    5.0   311     9.6   99999.0    0.00 
 291   13:30   0.53   64.9    15    6.3   296    12.5   99999.0    0.00 
 291   13:40   0.53   65.3    14    6.1   297    10.8   99999.0    0.00 
 291   13:50   0.44   64.8    15    5.3   274    10.8   99999.0    0.00 
 291   14:00   0.45   64.5    16    5.4   287    10.8   99999.0    0.00 
 291   14:10   0.48   65.0    15    3.7   278     5.4   99999.0    0.00 
 291   14:20   0.45   65.2    15    4.9   310    11.7   99999.0    0.00 
 291   14:30   0.41   65.2    16    4.9   290    10.8   99999.0    0.00 
 291   14:40   0.47   64.9    16    5.6   286    13.1   99999.0    0.00 
 291   14:50   0.42   64.8    15    4.8   293    11.3   99999.0    0.00 
 291   15:00   0.44   64.6    16    5.1   292    10.2   99999.0    0.00 
 291   15:10   0.41   65.0    15    6.0   290    14.9   99999.0    0.00 
 291   15:20   0.40   65.3    15    3.9   305     9.0   99999.0    0.00 
 291   15:30   0.45   65.6    14    4.7   290     8.4   99999.0    0.00 
 291   15:40   0.40   64.8    14    6.1   267    11.3   99999.0    0.00 
 291   15:50   0.36   64.1    15    6.5   272    13.1   99999.0    0.00 
 291   16:00   0.28   63.4    15    6.0   286    11.3   99999.0    0.00 
 291   16:10   0.20   62.2    16    5.5   262     9.6   99999.0    0.00 
 291   16:20   0.18   61.5    17    4.9   274     8.4   99999.0    0.00 
 291   16:30   0.18   60.8    18    4.2   266     8.4   99999.0    0.00 
 291   16:40   0.18   60.7    18    5.3   268    10.8   99999.0    0.00 
 291   16:50   0.15   59.7    19    4.5   271     9.0   99999.0    0.00 
 291   17:00   0.09   58.4    21    3.5   278     7.2   99999.0    0.00 
 291   17:10   0.03   56.5    24    3.4   290     5.4   99999.0    0.00 
 291   17:20   0.02   54.4    26    3.2   303     5.4   99999.0    0.00 
 291   17:30   0.01   51.6    31    2.3   319     5.4   99999.0    0.00 
 291   17:40   0.00   48.9    32    1.1   358     3.0   99999.0    0.00 
 291   17:50   0.00   46.9    34    0.9   350     2.4   99999.0    0.00 
 291   18:00   0.00   45.2    40    1.7   347     3.0   99999.0    0.00 
 291   18:10   0.00   43.9    41    1.4   341     2.4   99999.0    0.00 
 291   18:20   0.00   42.8    45    1.1   359     2.4   99999.0    0.00 
 291   18:30   0.00   41.7    47    0.8    36     1.8   99999.0    0.00 
 291   18:40   0.00   40.8    48    0.2    28     1.5   99999.0    0.00 
 291   18:50   0.00   40.0    48    0.3    41     1.8   99999.0    0.00 
 291   19:00   0.00   39.4    49    0.8    14     1.8   99999.0    0.00 
 291   19:10   0.00   38.9    50    0.3   357     2.4   99999.0    0.00 
 291   19:20   0.00   38.4    50    0.7   350     2.4   99999.0    0.00 
 291   19:30   0.00   37.7    51    0.6     3     2.4   99999.0    0.00 
 291   19:40   0.00   37.2    51    0.8     5     1.8   99999.0    0.00 
 291   19:50   0.00   36.9    52    0.7    42     1.8   99999.0    0.00 
 291   20:00   0.00   36.5    53    1.2    53     1.8   99999.0    0.00 
 291   20:10   0.00   36.3    54    1.3    49     1.8   99999.0    0.00 
 291   20:20   0.00   36.1    54    1.1    56     1.8   99999.0    0.00 
 291   20:30   0.00   35.7    55    1.3    51     1.8   99999.0    0.00 
 291   20:40   0.00   35.4    55    1.1    61     1.8   99999.0    0.00 
 291   20:50   0.00   35.1    56    0.8    61     1.8   99999.0    0.00 
 291   21:00   0.00   34.8    56    1.3    57     2.4   99999.0    0.00 
 291   21:10   0.00   34.5    56    0.2    53     1.8   99999.0    0.00 
 291   21:20   0.00   34.2    56    1.1    49     1.8   99999.0    0.00 
 291   21:30   0.00   33.8    58    0.7    57     1.8   99999.0    0.00 
 291   21:40   0.00   33.5    57    0.0     0     0.0   99999.0    0.00 
 291   21:50   0.00   33.3    56    0.6    53     1.8   99999.0    0.00 
 291   22:00   0.00   33.0    57    0.8    44     2.4   99999.0    0.00 
 291   22:10   0.00   32.8    58    0.0     0     0.0   99999.0    0.00 
 291   22:20   0.00   32.7    56    0.9    68     2.4   99999.0    0.00 
 291   22:30   0.00   32.5    56    1.3    60     2.4   99999.0    0.00 
 291   22:40   0.00   32.3    56    1.6    64     2.4   99999.0    0.00 
 291   22:50   0.00   32.1    57    0.9    62     2.4   99999.0    0.00 
 291   23:00   0.00   31.8    56    1.9    67     2.4   99999.0    0.00 
 291   23:10   0.00   31.7    56    0.3    60     1.8   99999.0    0.00 
 291   23:20   0.00   31.8    55    2.2    67     2.4   99999.0    0.00 

Return to Cebollita Spring, Valles Caldera graphs page.


Western Regional Climate Center,wrcc@dri.edu